Terminal Aerodrome Forecast
Issued by NWS Northern Indiana

Home | Current Version | Previous Version | Text Only | Print | Product List | Glossary Off
Versions: 1 2 3 4 5 6 7 8 9 10 11 12 13 14 15 16 17 18 19

000
FTUS43 KIWX 281130
TAFFWA
TAF
KFWA 281130Z 2812/2912 VRB02KT P6SM FEW040 SCT120
     FM281500 VRB03KT P6SM VCTS BKN050CB
     FM282000 28005KT P6SM SCT050 BKN120
     FM290200 VRB03KT P6SM SCT250
     FM290700 03003KT 4SM BR SCT250=

USA.gov is the U.S. government's official web portal to all federal, state and local government web resources and services.